Time;durP1;ratioP1;P1;durP2;ratioP2;P2;SDS_P1;SDS_P2;PMS_P1;PMS_P2;Temp;Humidity;BMP_temperature;BMP_pressure;BME280_temperature;BME280_humidity;BME280_pressure;Samples;Min_cycle;Max_cycle;Signal;HPM_P1;HPM_P2
2021/10/28 00:14:26;;;;;;;13.53;7.83;;;11.60;99.90;;;;;;6243724;22;20512;-84
2021/10/28 00:16:55;;;;;;;14.67;8.80;;;11.60;99.90;;;;;;6215125;22;20171;-85
2021/10/28 00:19:21;;;;;;;20.63;8.67;;;11.50;99.90;;;;;;6215775;22;20165;-85
2021/10/28 00:21:49;;;;;;;16.50;7.80;;;11.50;99.90;;;;;;6214907;22;20570;-85
2021/10/28 00:24:15;;;;;;;19.47;10.17;;;11.50;99.90;;;;;;6239927;22;20196;-85
2021/10/28 00:26:46;;;;;;;15.37;9.63;;;11.50;99.90;;;;;;6241043;22;20224;-85
2021/10/28 00:29:15;;;;;;;17.47;8.87;;;11.40;99.90;;;;;;6243227;22;20536;-85
2021/10/28 00:31:42;;;;;;;20.20;10.80;;;11.40;99.90;;;;;;6244360;22;20157;-85
2021/10/28 00:34:10;;;;;;;15.03;8.93;;;11.40;99.90;;;;;;6245767;22;20163;-85
2021/10/28 00:36:37;;;;;;;16.20;11.27;;;11.50;99.90;;;;;;6273651;22;20265;-85
2021/10/28 00:39:06;;;;;;;21.23;9.67;;;11.50;99.90;;;;;;6220111;22;20197;-86
2021/10/28 00:41:31;;;;;;;20.80;10.70;;;11.60;99.90;;;;;;6245230;22;20538;-85
2021/10/28 00:43:59;;;;;;;19.13;9.97;;;11.60;99.90;;;;;;6222175;22;20485;-85
2021/10/28 00:46:31;;;;;;;21.77;12.23;;;11.60;99.90;;;;;;6247744;22;20161;-86
2021/10/28 00:48:59;;;;;;;18.33;10.77;;;11.60;99.90;;;;;;6247548;22;20205;-86
2021/10/28 00:51:27;;;;;;;20.10;11.50;;;11.70;99.90;;;;;;6268710;22;20215;-85
2021/10/28 00:53:54;;;;;;;24.90;11.73;;;11.70;99.90;;;;;;6213771;22;20637;-86
2021/10/28 00:56:21;;;;;;;19.57;10.80;;;11.70;99.90;;;;;;6238763;22;20781;-85
2021/10/28 00:58:48;;;;;;;22.03;11.50;;;11.80;99.90;;;;;;6265027;22;20183;-85
2021/10/28 01:01:14;;;;;;;18.87;12.67;;;11.80;99.90;;;;;;6213839;22;20482;-86
2021/10/28 01:03:40;;;;;;;24.53;11.30;;;11.80;99.90;;;;;;6212773;22;20192;-85
2021/10/28 01:06:08;;;;;;;20.83;12.27;;;11.90;99.90;;;;;;6238680;22;20246;-85
2021/10/28 01:08:37;;;;;;;25.13;14.80;;;11.90;99.90;;;;;;6265013;22;20243;-85
2021/10/28 01:11:04;;;;;;;21.00;12.20;;;11.90;99.90;;;;;;6264546;22;20195;-86
2021/10/28 01:13:29;;;;;;;25.17;11.90;;;12.00;99.90;;;;;;6213150;22;20254;-84
2021/10/28 01:15:56;;;;;;;22.90;14.00;;;12.00;99.90;;;;;;6214487;22;20197;-85
2021/10/28 01:18:25;;;;;;;28.23;10.40;;;12.00;99.90;;;;;;6268323;22;20226;-86
2021/10/28 01:20:53;;;;;;;27.07;14.20;;;12.00;99.90;;;;;;6244454;22;20204;-86
2021/10/28 01:23:21;;;;;;;17.93;11.77;;;12.10;99.90;;;;;;6272368;22;20280;-86
2021/10/28 01:25:58;;;;;;;22.53;13.73;;;12.10;99.90;;;;;;6273123;22;20149;-86
2021/10/28 01:28:27;;;;;;;19.30;11.00;;;12.10;99.90;;;;;;6277094;22;20177;-86
2021/10/28 01:30:55;;;;;;;19.83;12.43;;;12.10;99.90;;;;;;6252800;22;20586;-85
2021/10/28 01:33:22;;;;;;;21.80;11.77;;;12.10;99.90;;;;;;6253499;22;20212;-85
2021/10/28 01:35:49;;;;;;;23.83;11.50;;;12.10;99.90;;;;;;6228674;22;20207;-86
2021/10/28 01:38:17;;;;;;;23.20;12.77;;;12.10;99.90;;;;;;6226327;22;20516;-86
2021/10/28 01:40:51;;;;;;;28.97;11.80;;;12.10;99.90;;;;;;6200219;22;20168;-86
2021/10/28 01:43:18;;;;;;;18.23;12.50;;;12.00;99.90;;;;;;6240774;22;20576;-85
2021/10/28 01:45:44;;;;;;;24.90;12.30;;;12.10;99.90;;;;;;6212304;22;20197;-85
2021/10/28 01:48:10;;;;;;;18.77;10.97;;;12.00;99.90;;;;;;6212436;22;20215;-85
2021/10/28 01:50:36;;;;;;;22.03;11.03;;;12.10;99.90;;;;;;6211432;22;20188;-84
2021/10/28 01:53:02;;;;;;;21.23;12.37;;;12.10;99.90;;;;;;6263971;22;20193;-85
2021/10/28 01:55:28;;;;;;;28.00;12.47;;;12.10;99.90;;;;;;6237997;22;20263;-85
2021/10/28 01:57:54;;;;;;;14.90;10.57;;;12.10;99.90;;;;;;6263999;22;20801;-85
2021/10/28 02:00:22;;;;;;;22.80;12.00;;;12.10;99.90;;;;;;6237119;22;20196;-85
2021/10/28 02:02:50;;;;;;;19.13;12.37;;;12.10;99.90;;;;;;6264123;22;20652;-85
2021/10/28 02:05:21;;;;;;;16.83;10.60;;;12.10;99.90;;;;;;6237115;22;20184;-85
2021/10/28 02:07:48;;;;;;;22.80;14.03;;;12.10;99.90;;;;;;6237733;22;20189;-86
2021/10/28 02:10:15;;;;;;;19.50;10.93;;;12.10;99.90;;;;;;6237872;22;20157;-85
2021/10/28 02:12:42;;;;;;;16.90;9.63;;;12.10;99.90;;;;;;6237546;22;20638;-85
2021/10/28 02:15:12;;;;;;;21.40;11.40;;;12.10;99.90;;;;;;6264619;22;20193;-85
2021/10/28 02:17:39;;;;;;;17.80;11.03;;;12.10;99.90;;;;;;6264949;22;20220;-86
2021/10/28 02:20:06;;;;;;;21.93;11.13;;;12.00;99.90;;;;;;6239462;22;20195;-85
2021/10/28 02:22:33;;;;;;;21.70;11.20;;;12.00;99.90;;;;;;6241542;22;20188;-86
2021/10/28 02:24:58;;;;;;;20.10;11.90;;;12.00;99.90;;;;;;6242380;22;20203;-85
2021/10/28 02:27:24;;;;;;;20.53;10.27;;;11.90;99.90;;;;;;6190412;22;20275;-85
2021/10/28 02:29:50;;;;;;;16.40;10.60;;;11.80;99.90;;;;;;6240048;22;20196;-85
2021/10/28 02:32:16;;;;;;;27.40;9.73;;;11.70;99.90;;;;;;6240029;22;20718;-86
2021/10/28 02:34:42;;;;;;;14.07;10.73;;;11.60;99.90;;;;;;6214756;22;20168;-85
2021/10/28 02:37:08;;;;;;;14.83;9.17;;;11.60;99.90;;;;;;6268721;22;20230;-84
2021/10/28 02:39:34;;;;;;;17.57;9.50;;;11.50;99.90;;;;;;6267854;22;20517;-85
2021/10/28 02:42:00;;;;;;;16.63;9.23;;;11.40;99.90;;;;;;6215879;22;20200;-84
2021/10/28 02:44:26;;;;;;;15.60;9.53;;;11.40;99.90;;;;;;6241418;22;20185;-84
2021/10/28 02:46:52;;;;;;;13.47;8.07;;;11.30;99.90;;;;;;6215779;22;20380;-85
2021/10/28 02:49:18;;;;;;;15.67;9.27;;;11.30;99.90;;;;;;6216764;22;20192;-83
2021/10/28 02:51:48;;;;;;;14.47;9.10;;;11.20;99.90;;;;;;6267913;22;20275;-84
2021/10/28 02:54:15;;;;;;;19.40;10.53;;;11.20;99.90;;;;;;6240592;22;20598;-84
2021/10/28 02:56:41;;;;;;;16.17;8.83;;;11.20;99.90;;;;;;6267826;22;20303;-85
2021/10/28 02:59:07;;;;;;;14.00;8.90;;;11.10;99.90;;;;;;6240684;22;20264;-85
2021/10/28 03:01:33;;;;;;;15.97;8.77;;;11.10;99.90;;;;;;6191832;22;20202;-84
2021/10/28 03:03:59;;;;;;;14.43;8.07;;;11.10;99.90;;;;;;6216013;22;21021;-84
2021/10/28 03:06:24;;;;;;;21.70;9.63;;;11.10;99.90;;;;;;6241159;22;20578;-84
2021/10/28 03:08:50;;;;;;;17.33;9.63;;;11.10;99.90;;;;;;6215346;22;20267;-84
2021/10/28 03:11:17;;;;;;;14.67;8.83;;;11.00;99.90;;;;;;6241559;22;20197;-85
2021/10/28 03:13:45;;;;;;;13.03;8.20;;;11.00;99.90;;;;;;6241053;22;20290;-84
2021/10/28 03:16:20;;;;;;;14.23;8.80;;;11.00;99.90;;;;;;6241829;22;20169;-85
2021/10/28 03:27:00;;;;;;;12.03;7.43;;;10.80;99.90;;;;;;6268102;22;20197;-85
2021/10/28 03:29:26;;;;;;;16.30;8.27;;;10.80;99.90;;;;;;6267079;22;20200;-84
2021/10/28 03:31:52;;;;;;;16.40;8.87;;;10.80;99.90;;;;;;6216084;22;20233;-85
2021/10/28 03:34:17;;;;;;;13.63;9.83;;;10.80;99.90;;;;;;6241939;22;20567;-84
2021/10/28 03:36:53;;;;;;;13.47;8.50;;;10.80;99.90;;;;;;6215632;22;20241;-85
2021/10/28 03:39:35;;;;;;;14.40;7.40;;;10.80;99.90;;;;;;6217536;22;20321;-85
2021/10/28 03:45:03;;;;;;;10.93;7.67;;;10.80;99.90;;;;;;6265878;22;20250;-84
2021/10/28 03:50:29;;;;;;;10.03;8.37;;;10.70;99.90;;;;;;6243663;22;20238;-84
2021/10/28 04:20:38;;;;;;;13.33;7.43;;;10.10;99.90;;;;;;6208684;22;20196;-86
2021/10/28 04:28:54;;;;;;;13.07;7.47;;;10.10;99.90;;;;;;6266556;22;20184;-85
2021/10/28 04:31:21;;;;;;;11.70;7.10;;;10.10;99.90;;;;;;6266576;22;20181;-84
2021/10/28 04:33:48;;;;;;;17.10;8.00;;;10.20;99.90;;;;;;6265978;22;20267;-85
2021/10/28 04:36:13;;;;;;;14.33;8.63;;;10.30;99.90;;;;;;6189140;22;20196;-84
2021/10/28 04:38:39;;;;;;;9.60;5.53;;;10.30;99.90;;;;;;6240102;22;20472;-85
2021/10/28 04:41:05;;;;;;;12.10;6.43;;;10.30;99.90;;;;;;6239482;22;20207;-84
2021/10/28 04:43:31;;;;;;;11.30;8.37;;;10.30;99.90;;;;;;6190023;22;20161;-85
2021/10/28 04:45:57;;;;;;;13.67;8.53;;;10.30;99.90;;;;;;6239728;22;20197;-85
2021/10/28 04:48:22;;;;;;;12.53;8.37;;;10.40;99.90;;;;;;6240168;22;20931;-84
2021/10/28 04:50:48;;;;;;;12.83;7.50;;;10.40;99.90;;;;;;6214926;22;20200;-85
2021/10/28 04:53:14;;;;;;;10.50;6.30;;;10.30;99.90;;;;;;6189413;22;20267;-85
2021/10/28 04:55:40;;;;;;;12.47;7.17;;;10.40;99.90;;;;;;6215248;22;20571;-84
2021/10/28 04:58:05;;;;;;;8.43;5.80;;;10.30;99.90;;;;;;6239943;22;20676;-86
2021/10/28 05:00:31;;;;;;;11.30;7.33;;;10.30;99.90;;;;;;6214557;22;20288;-85
2021/10/28 05:02:57;;;;;;;7.73;6.70;;;10.20;99.90;;;;;;6214309;22;20280;-85
2021/10/28 05:05:23;;;;;;;11.83;7.47;;;10.30;99.90;;;;;;6214824;22;20188;-86
2021/10/28 05:07:49;;;;;;;9.87;5.17;;;10.20;99.90;;;;;;6266557;22;20837;-85
2021/10/28 05:10:14;;;;;;;7.90;6.03;;;10.20;99.90;;;;;;6240768;22;20180;-84
2021/10/28 05:12:41;;;;;;;13.97;8.63;;;10.20;99.90;;;;;;6215078;22;20208;-85
2021/10/28 05:15:07;;;;;;;14.17;7.40;;;10.30;99.90;;;;;;6240301;22;20446;-86
2021/10/28 05:17:33;;;;;;;12.40;7.23;;;10.20;99.90;;;;;;6186844;22;20242;-86
2021/10/28 05:19:59;;;;;;;11.80;7.00;;;10.20;99.90;;;;;;6187201;22;20215;-85
2021/10/28 05:22:24;;;;;;;12.00;6.37;;;10.20;99.90;;;;;;6212593;22;20589;-86
2021/10/28 05:24:50;;;;;;;8.43;5.43;;;10.20;99.90;;;;;;6237629;22;20193;-86
2021/10/28 05:27:16;;;;;;;11.47;6.87;;;10.20;99.90;;;;;;6264310;22;20284;-85
2021/10/28 05:29:42;;;;;;;12.73;6.17;;;10.20;99.90;;;;;;6211332;22;20204;-86
2021/10/28 05:32:07;;;;;;;12.90;7.50;;;10.10;99.90;;;;;;6237546;22;20192;-86
2021/10/28 05:34:33;;;;;;;12.93;6.43;;;10.10;99.90;;;;;;6264857;22;20219;-85
2021/10/28 05:36:59;;;;;;;13.13;8.13;;;10.10;99.90;;;;;;6212705;22;20579;-86
2021/10/28 05:39:25;;;;;;;9.97;6.93;;;10.10;99.90;;;;;;6266467;22;20592;-86
2021/10/28 05:41:50;;;;;;;14.13;6.27;;;10.10;99.90;;;;;;6238834;22;20200;-86
2021/10/28 05:44:16;;;;;;;8.70;5.60;;;10.20;99.90;;;;;;6238969;22;20462;-85
2021/10/28 05:46:43;;;;;;;13.30;7.67;;;10.20;99.90;;;;;;6213439;22;20496;-85
2021/10/28 05:49:09;;;;;;;17.13;6.53;;;10.20;99.90;;;;;;6239856;22;20362;-86
2021/10/28 05:51:38;;;;;;;16.20;6.57;;;10.10;99.90;;;;;;6238689;22;20196;-86
2021/10/28 05:54:04;;;;;;;10.30;5.93;;;10.10;99.90;;;;;;6214309;22;20196;-86
2021/10/28 05:56:30;;;;;;;8.50;6.03;;;10.10;99.90;;;;;;6239073;22;20275;-85
2021/10/28 05:58:56;;;;;;;7.57;5.23;;;10.10;99.90;;;;;;6213992;22;20263;-86
2021/10/28 06:01:21;;;;;;;10.10;5.07;;;10.10;99.90;;;;;;6238636;22;20646;-86
2021/10/28 06:03:47;;;;;;;14.03;5.27;;;10.10;99.90;;;;;;6238286;22;20192;-86
2021/10/28 06:06:13;;;;;;;9.20;6.73;;;10.00;99.90;;;;;;6265908;22;20280;-85
2021/10/28 06:08:39;;;;;;;8.60;5.73;;;10.00;99.90;;;;;;6237560;22;20608;-86
2021/10/28 06:11:05;;;;;;;8.70;5.73;;;9.90;99.90;;;;;;6239262;22;20239;-86
2021/10/28 06:13:30;;;;;;;13.00;5.27;;;9.90;99.90;;;;;;6213662;22;20201;-85
2021/10/28 06:15:58;;;;;;;6.47;4.67;;;9.80;99.90;;;;;;6213968;22;20208;-85
2021/10/28 06:18:36;;;;;;;7.87;5.53;;;9.80;99.90;;;;;;6265847;22;20540;-84
2021/10/28 06:21:03;;;;;;;7.40;4.97;;;9.80;99.90;;;;;;6241320;22;20530;-85
2021/10/28 06:23:28;;;;;;;8.57;5.50;;;9.80;99.90;;;;;;6238622;22;20635;-85
2021/10/28 06:25:54;;;;;;;7.40;5.63;;;9.80;99.90;;;;;;6213075;22;20394;-84
2021/10/28 06:28:20;;;;;;;4.93;4.50;;;9.80;99.90;;;;;;6214085;22;20207;-85
2021/10/28 06:30:46;;;;;;;9.17;6.07;;;9.90;99.90;;;;;;6238555;22;20192;-86
2021/10/28 06:33:18;;;;;;;7.70;5.07;;;9.80;99.90;;;;;;6239197;22;20669;-86
2021/10/28 06:35:45;;;;;;;10.93;5.57;;;9.90;99.90;;;;;;6239103;22;20196;-86
2021/10/28 06:38:11;;;;;;;4.40;3.30;;;9.90;99.90;;;;;;6238676;22;20192;-86
2021/10/28 06:40:37;;;;;;;8.83;5.67;;;10.00;99.90;;;;;;6266641;22;20543;-87
2021/10/28 06:43:03;;;;;;;10.70;5.53;;;10.10;99.90;;;;;;6213570;22;20188;-86
2021/10/28 06:45:29;;;;;;;9.10;5.83;;;10.20;99.90;;;;;;6265792;22;20258;-86
2021/10/28 06:47:57;;;;;;;7.83;5.47;;;10.30;99.90;;;;;;6239080;22;20212;-86
2021/10/28 06:50:28;;;;;;;7.50;4.27;;;10.20;99.90;;;;;;6213175;22;20189;-86
2021/10/28 06:53:21;;;;;;;5.07;4.40;;;10.20;99.90;;;;;;6240078;22;20172;-86
2021/10/28 06:56:06;;;;;;;6.80;5.80;;;10.20;99.90;;;;;;6225178;22;20157;-86
2021/10/28 07:04:00;;;;;;;8.33;4.73;;;10.80;99.90;;;;;;6220877;22;20201;-85
2021/10/28 07:06:27;;;;;;;7.73;5.33;;;10.80;99.90;;;;;;6238277;22;20203;-86
2021/10/28 07:09:02;;;;;;;6.97;4.63;;;10.80;99.90;;;;;;6265196;22;20221;-86
2021/10/28 07:11:32;;;;;;;7.23;5.33;;;10.90;99.90;;;;;;6215300;22;20199;-86
2021/10/28 07:14:00;;;;;;;6.77;4.00;;;11.00;99.90;;;;;;6237720;22;20224;-86
2021/10/28 07:16:39;;;;;;;9.90;4.30;;;11.40;99.90;;;;;;6266089;22;20600;-85
2021/10/28 07:19:32;;;;;;;6.60;4.77;;;11.60;99.90;;;;;;6241778;22;20176;-87
2021/10/28 07:22:16;;;;;;;5.30;4.23;;;12.00;99.90;;;;;;6199418;22;20196;-88
2021/10/28 07:32:49;;;;;;;3.60;3.30;;;11.60;99.90;;;;;;6239647;22;20240;-87
2021/10/28 08:14:02;;;;;;;4.70;3.17;;;15.80;99.90;;;;;;6202869;22;20212;-89
2021/10/28 08:31:43;;;;;;;8.13;3.93;;;13.40;99.90;;;;;;6237873;22;20157;-90
2021/10/28 08:34:10;;;;;;;5.53;3.53;;;13.30;99.90;;;;;;6212210;22;20438;-89
2021/10/28 08:36:39;;;;;;;5.97;3.20;;;13.20;99.90;;;;;;6188870;22;20659;-90
2021/10/28 08:39:07;;;;;;;4.03;3.17;;;13.10;99.90;;;;;;6265291;22;20232;-91
2021/10/28 08:41:35;;;;;;;6.17;3.03;;;13.10;99.90;;;;;;6212925;22;20192;-90
2021/10/28 08:44:02;;;;;;;5.67;3.40;;;13.10;99.90;;;;;;6213053;22;20199;-89
2021/10/28 08:46:30;;;;;;;7.63;3.50;;;13.10;99.90;;;;;;6265957;22;20152;-88
2021/10/28 08:48:58;;;;;;;3.60;2.67;;;13.00;99.90;;;;;;6264782;22;20197;-90
2021/10/28 09:24:43;;;;;;;6.13;4.33;;;13.30;99.90;;;;;;6266865;22;20285;-89
2021/10/28 09:27:15;;;;;;;6.00;3.90;;;13.30;99.90;;;;;;6191480;22;20275;-88
2021/10/28 09:32:25;;;;;;;5.30;3.50;;;13.40;99.90;;;;;;6265995;22;20184;-85
2021/10/28 09:46:34;;;;;;;5.67;3.63;;;13.70;99.90;;;;;;6268157;22;20221;-87
2021/10/28 09:51:49;;;;;;;7.73;3.67;;;13.80;99.90;;;;;;6266912;22;20737;-89
2021/10/28 09:54:32;;;;;;;6.23;3.53;;;13.80;99.90;;;;;;6239988;22;20192;-89
2021/10/28 09:59:54;;;;;;;2.70;2.03;;;13.90;99.90;;;;;;6243712;22;20204;-90
2021/10/28 10:05:17;;;;;;;7.50;3.73;;;13.90;99.90;;;;;;6266532;22;20232;-88
2021/10/28 10:07:47;;;;;;;4.40;2.93;;;14.10;99.90;;;;;;6266070;22;20616;-89
2021/10/28 10:10:18;;;;;;;5.63;3.40;;;14.20;99.90;;;;;;6240217;22;20641;-90
2021/10/28 10:12:45;;;;;;;8.70;3.70;;;14.30;99.90;;;;;;6239386;22;20223;-89
2021/10/28 10:15:12;;;;;;;8.40;3.80;;;14.30;99.90;;;;;;6238699;22;20200;-89
2021/10/28 10:17:39;;;;;;;4.70;3.60;;;14.40;99.90;;;;;;6266167;22;20200;-91
2021/10/28 10:20:10;;;;;;;4.60;3.77;;;14.40;99.90;;;;;;6239083;22;20192;-89
2021/10/28 11:31:16;;;;;;;4.97;3.53;;;17.00;99.90;;;;;;6266318;22;20199;-91
2021/10/28 12:44:22;;;;;;;4.47;3.03;;;16.20;99.90;;;;;;6265036;22;20201;-90
2021/10/28 12:55:09;;;;;;;4.13;2.80;;;16.30;99.90;;;;;;6267414;22;20192;-91
2021/10/28 13:38:23;;;;;;;3.33;2.37;;;16.00;99.90;;;;;;6218175;22;20601;-91
2021/10/28 14:00:07;;;;;;;4.43;2.50;;;15.90;99.90;;;;;;6240898;22;20206;-90
2021/10/28 14:19:18;;;;;;;8.73;3.33;;;15.70;99.90;;;;;;6265040;22;20220;-89
2021/10/28 15:29:27;;;;;;;9.00;4.93;;;14.80;99.90;;;;;;6267443;22;20287;-88
2021/10/28 16:23:24;;;;;;;9.27;5.23;;;13.50;99.90;;;;;;6264268;22;20192;-90
2021/10/28 16:25:50;;;;;;;9.17;5.47;;;13.50;99.90;;;;;;6236133;22;20597;-89
2021/10/28 16:28:17;;;;;;;8.23;4.70;;;13.40;99.90;;;;;;6210558;22;20189;-90
2021/10/28 16:30:47;;;;;;;7.67;5.80;;;13.30;99.90;;;;;;6185205;22;20196;-87
2021/10/28 16:33:16;;;;;;;7.97;3.93;;;13.30;99.90;;;;;;6236653;22;20192;-88
2021/10/28 16:35:43;;;;;;;6.67;4.27;;;13.20;99.90;;;;;;6213029;22;20200;-89
2021/10/28 16:38:10;;;;;;;10.47;5.90;;;13.20;99.90;;;;;;6239927;22;20215;-87
2021/10/28 16:40:40;;;;;;;6.20;4.43;;;13.20;99.90;;;;;;6213741;22;20164;-89
2021/10/28 16:43:07;;;;;;;8.57;5.67;;;13.20;99.90;;;;;;6235591;22;20196;-90
2021/10/28 16:45:33;;;;;;;7.97;5.23;;;13.10;99.90;;;;;;6262402;22;20204;-89
2021/10/28 16:47:59;;;;;;;7.57;5.20;;;13.10;99.90;;;;;;6234776;22;20196;-89
2021/10/28 16:50:25;;;;;;;11.10;6.07;;;13.00;99.90;;;;;;6212521;22;20237;-90
2021/10/28 16:52:52;;;;;;;9.47;5.53;;;13.00;99.90;;;;;;6239439;22;20161;-89
2021/10/28 16:55:18;;;;;;;8.20;6.10;;;12.90;99.90;;;;;;6239758;22;20188;-89
2021/10/28 16:57:44;;;;;;;9.20;5.80;;;12.90;99.90;;;;;;6238388;22;20192;-89
2021/10/28 17:00:11;;;;;;;9.70;6.40;;;12.80;99.90;;;;;;6237978;22;20202;-88
2021/10/28 17:02:36;;;;;;;6.77;4.93;;;12.80;99.90;;;;;;6238447;22;20196;-86
2021/10/28 17:05:04;;;;;;;11.47;6.03;;;12.80;99.90;;;;;;6238967;22;20196;-88
2021/10/28 17:07:30;;;;;;;11.10;6.10;;;12.70;99.90;;;;;;6266876;22;20279;-89
2021/10/28 17:09:57;;;;;;;11.57;6.23;;;12.70;99.90;;;;;;6213675;22;20207;-89
2021/10/28 17:12:23;;;;;;;12.63;5.50;;;12.60;99.90;;;;;;6213367;22;20647;-88
2021/10/28 17:14:49;;;;;;;10.37;6.13;;;12.60;99.90;;;;;;6212758;22;20213;-88
2021/10/28 17:17:16;;;;;;;9.83;5.93;;;12.60;99.90;;;;;;6213514;22;20415;-86
2021/10/28 17:19:45;;;;;;;12.57;6.17;;;12.60;99.90;;;;;;6238979;22;20472;-86
2021/10/28 17:22:11;;;;;;;11.17;6.17;;;12.50;99.90;;;;;;6239342;22;20167;-87
2021/10/28 17:24:40;;;;;;;13.87;6.37;;;12.40;99.90;;;;;;6239472;22;20676;-86
2021/10/28 17:27:07;;;;;;;12.97;6.50;;;12.40;99.90;;;;;;6213760;22;20208;-86
2021/10/28 17:29:33;;;;;;;14.23;7.67;;;12.40;99.90;;;;;;6212987;22;20197;-85
2021/10/28 17:31:59;;;;;;;11.77;6.77;;;12.40;99.90;;;;;;6238905;22;20200;-86
2021/10/28 17:34:26;;;;;;;7.63;6.20;;;12.40;99.90;;;;;;6214670;22;20161;-86
2021/10/28 17:36:53;;;;;;;7.80;5.37;;;12.30;99.90;;;;;;6267409;22;20197;-85
2021/10/28 17:39:21;;;;;;;16.60;8.07;;;12.20;99.90;;;;;;6267546;22;20201;-85
2021/10/28 17:41:49;;;;;;;10.90;6.40;;;12.20;99.90;;;;;;6214795;22;20315;-89
2021/10/28 17:44:15;;;;;;;10.37;5.50;;;12.10;99.90;;;;;;6267287;22;20188;-89
2021/10/28 17:46:42;;;;;;;8.47;5.60;;;12.10;99.90;;;;;;6241125;22;20165;-88
2021/10/28 17:49:08;;;;;;;9.87;5.80;;;12.10;99.90;;;;;;6241187;22;20358;-89
2021/10/28 17:51:36;;;;;;;9.80;6.00;;;12.10;99.90;;;;;;6189878;22;20638;-90
2021/10/28 17:54:03;;;;;;;9.90;7.17;;;12.10;99.90;;;;;;6215134;22;20200;-89
2021/10/28 17:56:30;;;;;;;8.63;6.13;;;12.10;99.90;;;;;;6266571;22;20188;-90
2021/10/28 17:58:56;;;;;;;10.03;6.20;;;12.00;99.90;;;;;;6240575;22;20765;-88
2021/10/28 18:01:25;;;;;;;10.40;7.03;;;12.00;99.90;;;;;;6216025;22;20196;-89
2021/10/28 18:03:56;;;;;;;9.70;6.07;;;11.90;99.90;;;;;;6266977;22;20276;-89
2021/10/28 18:06:22;;;;;;;7.47;5.20;;;11.90;99.90;;;;;;6267521;22;20193;-88
2021/10/28 18:08:49;;;;;;;9.03;5.43;;;11.90;99.90;;;;;;6239856;22;20211;-89
2021/10/28 18:11:14;;;;;;;9.83;5.07;;;11.90;99.90;;;;;;6240313;22;20212;-89
2021/10/28 18:13:41;;;;;;;9.90;6.17;;;11.90;99.90;;;;;;6266775;22;20723;-88
2021/10/28 18:16:06;;;;;;;9.57;6.07;;;11.90;99.90;;;;;;6240772;22;20165;-88
2021/10/28 18:18:34;;;;;;;10.30;6.47;;;11.80;99.90;;;;;;6240222;22;20205;-86
2021/10/28 18:21:02;;;;;;;10.20;6.43;;;11.80;99.90;;;;;;6215154;22;20192;-87
2021/10/28 18:23:29;;;;;;;14.17;6.80;;;11.80;99.90;;;;;;6240393;22;20195;-86
2021/10/28 18:25:55;;;;;;;11.97;6.77;;;11.70;99.90;;;;;;6239279;22;20165;-87
2021/10/28 18:28:22;;;;;;;9.13;6.70;;;11.70;99.90;;;;;;6267499;22;20188;-85
2021/10/28 18:30:48;;;;;;;9.80;6.00;;;11.80;99.90;;;;;;6191400;22;20188;-88
2021/10/28 18:33:14;;;;;;;12.70;6.63;;;11.70;99.90;;;;;;6191091;22;20307;-88
2021/10/28 18:35:40;;;;;;;15.67;6.87;;;11.70;99.90;;;;;;6267844;22;20196;-88
2021/10/28 18:38:09;;;;;;;8.57;5.60;;;11.70;99.90;;;;;;6240363;22;20184;-89
2021/10/28 18:40:35;;;;;;;11.10;6.43;;;11.70;99.90;;;;;;6241938;22;20157;-89
2021/10/28 18:43:03;;;;;;;11.87;7.10;;;11.70;99.90;;;;;;6240748;22;20284;-89
2021/10/28 18:45:30;;;;;;;11.00;5.73;;;11.70;99.90;;;;;;6216814;22;20219;-88
2021/10/28 18:47:56;;;;;;;27.10;8.30;;;11.70;99.90;;;;;;6267552;22;20310;-89
2021/10/28 18:50:23;;;;;;;8.70;5.47;;;11.70;99.90;;;;;;6241703;22;20200;-88
2021/10/28 18:52:49;;;;;;;8.80;5.90;;;11.70;99.90;;;;;;6267038;22;20156;-87
2021/10/28 18:55:15;;;;;;;8.67;5.63;;;11.70;99.90;;;;;;6267937;22;20163;-89
2021/10/28 18:57:41;;;;;;;22.40;6.03;;;11.70;99.90;;;;;;6214632;22;20266;-88
2021/10/28 19:00:08;;;;;;;11.17;5.93;;;11.60;99.90;;;;;;6237203;22;20635;-88
2021/10/28 19:02:36;;;;;;;14.30;5.57;;;11.60;99.90;;;;;;6212225;22;20590;-88
2021/10/28 19:05:03;;;;;;;12.30;6.20;;;11.60;99.90;;;;;;6238084;22;20196;-88
2021/10/28 19:07:30;;;;;;;7.10;5.00;;;11.60;99.90;;;;;;6265255;22;20599;-88
2021/10/28 19:09:56;;;;;;;10.57;5.50;;;11.60;99.90;;;;;;6236685;22;20200;-89
2021/10/28 19:12:23;;;;;;;8.37;5.77;;;11.60;99.90;;;;;;6239619;22;20196;-89
2021/10/28 19:14:49;;;;;;;8.33;5.03;;;11.70;99.90;;;;;;6240144;22;20213;-89
2021/10/28 19:17:15;;;;;;;10.23;5.90;;;11.70;99.90;;;;;;6215610;22;20271;-89
2021/10/28 19:19:41;;;;;;;10.30;6.67;;;11.70;99.90;;;;;;6240204;22;20744;-87
2021/10/28 19:22:09;;;;;;;9.60;6.40;;;11.70;99.90;;;;;;6267860;22;20164;-89
2021/10/28 19:24:35;;;;;;;10.20;6.60;;;11.70;99.90;;;;;;6240463;22;20188;-90
2021/10/28 19:27:01;;;;;;;10.27;6.87;;;11.70;99.90;;;;;;6240156;22;20196;-89
2021/10/28 19:29:27;;;;;;;9.23;6.47;;;11.70;99.90;;;;;;6240302;22;20208;-88
2021/10/28 19:32:02;;;;;;;8.67;6.03;;;11.70;99.90;;;;;;6240444;22;20157;-89
2021/10/28 19:34:34;;;;;;;8.33;6.00;;;11.70;99.90;;;;;;6241796;22;20145;-89
2021/10/28 19:40:02;;;;;;;10.47;6.40;;;11.70;99.90;;;;;;6238675;22;20205;-89
2021/10/28 19:47:28;;;;;;;8.93;6.30;;;11.60;99.90;;;;;;6263682;22;20196;-88
2021/10/28 19:49:54;;;;;;;8.43;5.87;;;11.60;99.90;;;;;;6239833;22;20216;-86
2021/10/28 19:52:20;;;;;;;8.07;5.17;;;11.60;99.90;;;;;;6215688;22;20485;-88
2021/10/28 19:54:47;;;;;;;11.57;6.17;;;11.60;99.90;;;;;;6214657;22;20254;-88
2021/10/28 19:57:18;;;;;;;9.13;6.07;;;11.60;99.90;;;;;;6239032;22;20199;-87
2021/10/28 19:59:47;;;;;;;8.77;5.70;;;11.60;99.90;;;;;;6239346;22;20213;-86
2021/10/28 20:02:25;;;;;;;9.87;5.27;;;11.60;99.90;;;;;;6215385;22;21027;-91
2021/10/28 20:05:07;;;;;;;11.20;5.40;;;11.50;99.90;;;;;;6267788;22;20145;-88
2021/10/28 20:13:22;;;;;;;8.40;5.13;;;11.60;99.90;;;;;;6222689;22;20220;-85
2021/10/28 20:21:17;;;;;;;8.00;5.07;;;11.60;99.90;;;;;;6243510;22;20196;-87
2021/10/28 20:23:43;;;;;;;9.20;5.97;;;11.60;99.90;;;;;;6265389;22;20315;-91
2021/10/28 20:26:09;;;;;;;8.00;5.73;;;11.60;99.90;;;;;;6237975;22;20959;-87
2021/10/28 20:28:43;;;;;;;13.77;6.70;;;11.60;99.90;;;;;;6265351;22;20584;-87
2021/10/28 20:31:09;;;;;;;8.83;4.87;;;11.50;99.90;;;;;;6265502;22;20185;-86
2021/10/28 20:33:49;;;;;;;9.33;6.00;;;11.60;99.90;;;;;;6214180;22;20199;-85
2021/10/28 20:38:55;;;;;;;7.90;5.60;;;11.50;99.90;;;;;;6240798;22;20211;-86
2021/10/28 20:41:21;;;;;;;10.50;7.47;;;11.50;99.90;;;;;;6266005;22;20196;-87
2021/10/28 20:43:47;;;;;;;11.07;5.23;;;11.40;99.90;;;;;;6266245;22;20157;-87
2021/10/28 20:46:20;;;;;;;8.83;6.47;;;11.50;99.90;;;;;;6239225;22;20180;-87
2021/10/28 20:48:47;;;;;;;8.27;5.23;;;11.50;99.90;;;;;;6239578;22;20212;-86
2021/10/28 20:51:12;;;;;;;6.60;4.63;;;11.40;99.90;;;;;;6239267;22;20205;-86
2021/10/28 20:53:38;;;;;;;12.20;5.13;;;11.40;99.90;;;;;;6239227;22;20212;-88
2021/10/28 20:56:04;;;;;;;10.70;5.80;;;11.40;99.90;;;;;;6239422;22;20933;-86
2021/10/28 20:58:30;;;;;;;7.77;5.33;;;11.40;99.90;;;;;;6214766;22;20160;-86
2021/10/28 21:00:55;;;;;;;9.80;5.30;;;11.30;99.90;;;;;;6214291;22;20220;-86
2021/10/28 21:03:21;;;;;;;10.87;5.17;;;11.30;99.90;;;;;;6239144;22;20725;-89
2021/10/28 21:05:47;;;;;;;5.50;4.50;;;11.30;99.90;;;;;;6239259;22;20241;-86
2021/10/28 21:08:13;;;;;;;7.97;5.33;;;11.30;99.90;;;;;;6241079;22;20254;-88
2021/10/28 21:10:39;;;;;;;6.30;4.83;;;11.30;99.90;;;;;;6268054;22;20580;-87
2021/10/28 21:13:05;;;;;;;10.70;6.37;;;11.30;99.90;;;;;;6216857;22;20204;-87
2021/10/28 21:15:31;;;;;;;7.90;5.13;;;11.30;99.90;;;;;;6241398;22;20263;-88
2021/10/28 21:17:57;;;;;;;5.90;4.20;;;11.30;99.90;;;;;;6241060;22;20378;-87
2021/10/28 21:20:24;;;;;;;8.57;5.53;;;11.30;99.90;;;;;;6191826;22;20492;-87
2021/10/28 21:22:51;;;;;;;8.50;5.23;;;11.30;99.90;;;;;;6267307;22;20378;-87
2021/10/28 21:25:16;;;;;;;9.07;5.23;;;11.20;99.90;;;;;;6268226;22;20164;-87
2021/10/28 21:27:43;;;;;;;10.10;5.43;;;11.20;99.90;;;;;;6266884;22;20193;-87
2021/10/28 21:30:10;;;;;;;10.03;5.87;;;11.10;99.90;;;;;;6211589;22;20644;-87
2021/10/28 21:32:38;;;;;;;9.73;5.30;;;11.10;99.90;;;;;;6264073;22;20200;-87
2021/10/28 21:35:06;;;;;;;7.40;5.30;;;11.10;99.90;;;;;;6238412;22;20939;-87
2021/10/28 21:37:34;;;;;;;9.00;4.83;;;11.10;99.90;;;;;;6216623;22;20165;-85
2021/10/28 21:40:00;;;;;;;8.03;3.93;;;11.00;99.90;;;;;;6267567;22;20197;-85
2021/10/28 21:42:26;;;;;;;9.73;5.50;;;11.10;99.90;;;;;;6215493;22;20200;-85
2021/10/28 21:44:54;;;;;;;8.03;5.37;;;11.00;99.90;;;;;;6215819;22;20201;-86
2021/10/28 21:47:21;;;;;;;8.83;5.67;;;11.00;99.90;;;;;;6216426;22;20195;-87
2021/10/28 21:49:47;;;;;;;7.33;4.23;;;11.00;99.90;;;;;;6266598;22;20181;-87
2021/10/28 21:52:29;;;;;;;4.80;4.10;;;11.00;99.90;;;;;;6215942;22;20539;-86